sensor_id;sensor_type;location;lat;lon;timestamp;P1;durP1;ratioP1;P2;durP2;ratioP2
64188;SDS011;50493;50.970;10.082;2022-09-27T00:02:07;1.42;;;1.17;;
64188;SDS011;50493;50.970;10.082;2022-09-27T00:04:33;2.47;;;1.15;;
64188;SDS011;50493;50.970;10.082;2022-09-27T00:06:59;1.42;;;0.90;;
64188;SDS011;50493;50.970;10.082;2022-09-27T00:09:24;0.80;;;0.80;;
64188;SDS011;50493;50.970;10.082;2022-09-27T00:11:50;1.52;;;0.85;;
64188;SDS011;50493;50.970;10.082;2022-09-27T00:14:15;3.22;;;1.02;;
64188;SDS011;50493;50.970;10.082;2022-09-27T00:16:43;1.35;;;0.82;;
64188;SDS011;50493;50.970;10.082;2022-09-27T00:19:10;2.38;;;1.20;;
64188;SDS011;50493;50.970;10.082;2022-09-27T00:21:37;1.77;;;1.10;;
64188;SDS011;50493;50.970;10.082;2022-09-27T00:24:03;1.55;;;1.00;;
64188;SDS011;50493;50.970;10.082;2022-09-27T00:26:29;1.30;;;1.00;;
64188;SDS011;50493;50.970;10.082;2022-09-27T00:28:55;2.05;;;1.02;;
64188;SDS011;50493;50.970;10.082;2022-09-27T00:31:21;1.40;;;0.80;;
64188;SDS011;50493;50.970;10.082;2022-09-27T00:33:49;1.67;;;0.90;;
64188;SDS011;50493;50.970;10.082;2022-09-27T00:36:17;1.17;;;0.80;;
64188;SDS011;50493;50.970;10.082;2022-09-27T00:38:44;1.38;;;0.90;;
64188;SDS011;50493;50.970;10.082;2022-09-27T00:41:11;2.58;;;1.00;;
64188;SDS011;50493;50.970;10.082;2022-09-27T00:43:45;2.13;;;1.13;;
64188;SDS011;50493;50.970;10.082;2022-09-27T00:46:14;1.73;;;1.13;;
64188;SDS011;50493;50.970;10.082;2022-09-27T00:48:46;1.67;;;0.85;;
64188;SDS011;50493;50.970;10.082;2022-09-27T00:51:16;1.48;;;1.00;;
64188;SDS011;50493;50.970;10.082;2022-09-27T00:53:42;1.33;;;0.88;;
64188;SDS011;50493;50.970;10.082;2022-09-27T00:56:15;1.77;;;1.10;;
64188;SDS011;50493;50.970;10.082;2022-09-27T00:58:44;1.23;;;0.77;;
64188;SDS011;50493;50.970;10.082;2022-09-27T01:01:13;1.50;;;0.90;;
64188;SDS011;50493;50.970;10.082;2022-09-27T01:03:39;1.23;;;0.80;;
64188;SDS011;50493;50.970;10.082;2022-09-27T01:06:11;1.23;;;0.90;;
64188;SDS011;50493;50.970;10.082;2022-09-27T01:08:38;1.50;;;1.05;;
64188;SDS011;50493;50.970;10.082;2022-09-27T01:11:12;1.02;;;0.70;;
64188;SDS011;50493;50.970;10.082;2022-09-27T01:13:45;1.38;;;0.90;;
64188;SDS011;50493;50.970;10.082;2022-09-27T01:16:22;1.10;;;0.80;;
64188;SDS011;50493;50.970;10.082;2022-09-27T01:19:00;0.80;;;0.80;;
64188;SDS011;50493;50.970;10.082;2022-09-27T01:24:33;1.63;;;0.70;;
64188;SDS011;50493;50.970;10.082;2022-09-27T01:27:27;1.35;;;0.60;;
64188;SDS011;50493;50.970;10.082;2022-09-27T01:30:22;1.02;;;0.70;;
64188;SDS011;50493;50.970;10.082;2022-09-27T01:32:52;1.23;;;0.80;;
64188;SDS011;50493;50.970;10.082;2022-09-27T01:35:32;1.85;;;0.90;;
64188;SDS011;50493;50.970;10.082;2022-09-27T01:38:02;1.75;;;0.90;;
64188;SDS011;50493;50.970;10.082;2022-09-27T01:40:40;1.52;;;0.93;;
64188;SDS011;50493;50.970;10.082;2022-09-27T01:43:09;1.17;;;0.90;;
64188;SDS011;50493;50.970;10.082;2022-09-27T01:45:40;2.17;;;0.82;;
64188;SDS011;50493;50.970;10.082;2022-09-27T01:48:12;1.83;;;1.00;;
64188;SDS011;50493;50.970;10.082;2022-09-27T01:50:43;1.20;;;0.82;;
64188;SDS011;50493;50.970;10.082;2022-09-27T01:53:14;0.80;;;0.70;;
64188;SDS011;50493;50.970;10.082;2022-09-27T01:55:43;1.52;;;0.80;;
64188;SDS011;50493;50.970;10.082;2022-09-27T01:58:13;1.92;;;0.70;;
64188;SDS011;50493;50.970;10.082;2022-09-27T02:00:46;0.82;;;0.63;;
64188;SDS011;50493;50.970;10.082;2022-09-27T02:03:15;0.95;;;0.70;;
64188;SDS011;50493;50.970;10.082;2022-09-27T02:08:15;1.20;;;0.60;;
64188;SDS011;50493;50.970;10.082;2022-09-27T02:10:45;0.95;;;0.70;;
64188;SDS011;50493;50.970;10.082;2022-09-27T02:13:15;0.52;;;0.52;;
64188;SDS011;50493;50.970;10.082;2022-09-27T02:15:47;0.80;;;0.70;;
64188;SDS011;50493;50.970;10.082;2022-09-27T02:18:22;1.02;;;0.60;;
64188;SDS011;50493;50.970;10.082;2022-09-27T02:20:53;1.13;;;0.70;;
64188;SDS011;50493;50.970;10.082;2022-09-27T02:23:22;0.77;;;0.65;;
64188;SDS011;50493;50.970;10.082;2022-09-27T02:25:57;0.95;;;0.70;;
64188;SDS011;50493;50.970;10.082;2022-09-27T02:28:26;1.00;;;0.77;;
64188;SDS011;50493;50.970;10.082;2022-09-27T02:30:55;1.48;;;0.80;;
64188;SDS011;50493;50.970;10.082;2022-09-27T02:33:22;2.30;;;0.90;;
64188;SDS011;50493;50.970;10.082;2022-09-27T02:35:50;3.33;;;0.70;;
64188;SDS011;50493;50.970;10.082;2022-09-27T02:38:16;2.05;;;0.80;;
64188;SDS011;50493;50.970;10.082;2022-09-27T02:40:42;2.13;;;0.93;;
64188;SDS011;50493;50.970;10.082;2022-09-27T02:43:09;1.27;;;0.80;;
64188;SDS011;50493;50.970;10.082;2022-09-27T02:45:37;2.05;;;0.80;;
64188;SDS011;50493;50.970;10.082;2022-09-27T02:48:16;1.45;;;0.90;;
64188;SDS011;50493;50.970;10.082;2022-09-27T02:50:55;0.90;;;0.70;;
64188;SDS011;50493;50.970;10.082;2022-09-27T02:53:40;0.95;;;0.80;;
64188;SDS011;50493;50.970;10.082;2022-09-27T02:56:18;1.13;;;0.90;;
64188;SDS011;50493;50.970;10.082;2022-09-27T02:58:53;1.05;;;0.70;;
64188;SDS011;50493;50.970;10.082;2022-09-27T03:01:26;1.27;;;0.80;;
64188;SDS011;50493;50.970;10.082;2022-09-27T03:04:03;0.88;;;0.80;;
64188;SDS011;50493;50.970;10.082;2022-09-27T03:06:34;2.35;;;0.80;;
64188;SDS011;50493;50.970;10.082;2022-09-27T03:09:02;2.63;;;1.02;;
64188;SDS011;50493;50.970;10.082;2022-09-27T03:11:27;1.23;;;0.82;;
64188;SDS011;50493;50.970;10.082;2022-09-27T03:13:53;3.47;;;0.90;;
64188;SDS011;50493;50.970;10.082;2022-09-27T03:16:18;1.13;;;0.88;;
64188;SDS011;50493;50.970;10.082;2022-09-27T03:18:44;1.30;;;0.68;;
64188;SDS011;50493;50.970;10.082;2022-09-27T03:21:10;1.05;;;0.88;;
64188;SDS011;50493;50.970;10.082;2022-09-27T03:23:36;2.13;;;1.10;;
64188;SDS011;50493;50.970;10.082;2022-09-27T03:26:02;0.90;;;0.70;;
64188;SDS011;50493;50.970;10.082;2022-09-27T03:28:27;1.38;;;1.00;;
64188;SDS011;50493;50.970;10.082;2022-09-27T03:30:53;1.73;;;0.77;;
64188;SDS011;50493;50.970;10.082;2022-09-27T03:33:19;1.70;;;1.05;;
64188;SDS011;50493;50.970;10.082;2022-09-27T03:35:44;0.95;;;0.75;;
64188;SDS011;50493;50.970;10.082;2022-09-27T03:38:11;0.65;;;0.60;;
64188;SDS011;50493;50.970;10.082;2022-09-27T03:40:36;0.80;;;0.47;;
64188;SDS011;50493;50.970;10.082;2022-09-27T03:43:02;1.00;;;0.73;;
64188;SDS011;50493;50.970;10.082;2022-09-27T03:45:27;4.03;;;1.33;;
64188;SDS011;50493;50.970;10.082;2022-09-27T03:47:53;1.52;;;0.90;;
64188;SDS011;50493;50.970;10.082;2022-09-27T03:50:19;3.30;;;1.38;;
64188;SDS011;50493;50.970;10.082;2022-09-27T03:52:44;0.80;;;0.80;;
64188;SDS011;50493;50.970;10.082;2022-09-27T03:55:11;1.63;;;1.20;;
64188;SDS011;50493;50.970;10.082;2022-09-27T03:57:37;2.10;;;1.33;;
64188;SDS011;50493;50.970;10.082;2022-09-27T04:00:03;1.30;;;0.77;;
64188;SDS011;50493;50.970;10.082;2022-09-27T04:02:29;1.20;;;0.80;;
64188;SDS011;50493;50.970;10.082;2022-09-27T04:04:54;1.30;;;0.80;;
64188;SDS011;50493;50.970;10.082;2022-09-27T04:07:19;1.10;;;1.00;;
64188;SDS011;50493;50.970;10.082;2022-09-27T04:09:45;1.60;;;1.10;;
64188;SDS011;50493;50.970;10.082;2022-09-27T04:12:12;2.88;;;1.23;;
64188;SDS011;50493;50.970;10.082;2022-09-27T04:14:37;2.63;;;1.23;;
64188;SDS011;50493;50.970;10.082;2022-09-27T04:17:03;2.92;;;0.95;;
64188;SDS011;50493;50.970;10.082;2022-09-27T04:19:28;2.72;;;1.20;;
64188;SDS011;50493;50.970;10.082;2022-09-27T04:21:53;1.70;;;0.90;;
64188;SDS011;50493;50.970;10.082;2022-09-27T04:24:19;1.20;;;0.93;;
64188;SDS011;50493;50.970;10.082;2022-09-27T04:26:44;1.90;;;1.20;;
64188;SDS011;50493;50.970;10.082;2022-09-27T04:29:11;0.80;;;0.70;;
64188;SDS011;50493;50.970;10.082;2022-09-27T04:31:36;1.05;;;0.95;;
64188;SDS011;50493;50.970;10.082;2022-09-27T04:34:02;1.17;;;0.70;;
64188;SDS011;50493;50.970;10.082;2022-09-27T04:36:28;1.75;;;1.00;;
64188;SDS011;50493;50.970;10.082;2022-09-27T04:38:53;1.63;;;1.10;;
64188;SDS011;50493;50.970;10.082;2022-09-27T04:41:19;1.67;;;1.08;;
64188;SDS011;50493;50.970;10.082;2022-09-27T04:43:48;1.38;;;0.90;;
64188;SDS011;50493;50.970;10.082;2022-09-27T04:46:15;1.92;;;1.10;;
64188;SDS011;50493;50.970;10.082;2022-09-27T04:48:40;3.00;;;1.30;;
64188;SDS011;50493;50.970;10.082;2022-09-27T04:51:06;2.70;;;1.30;;
64188;SDS011;50493;50.970;10.082;2022-09-27T04:53:31;1.67;;;1.00;;
64188;SDS011;50493;50.970;10.082;2022-09-27T04:55:57;2.22;;;1.15;;
64188;SDS011;50493;50.970;10.082;2022-09-27T04:58:25;1.40;;;0.90;;
64188;SDS011;50493;50.970;10.082;2022-09-27T05:00:51;0.90;;;0.80;;
64188;SDS011;50493;50.970;10.082;2022-09-27T05:03:18;1.17;;;0.77;;
64188;SDS011;50493;50.970;10.082;2022-09-27T05:05:43;1.45;;;0.90;;
64188;SDS011;50493;50.970;10.082;2022-09-27T05:08:09;1.15;;;1.00;;
64188;SDS011;50493;50.970;10.082;2022-09-27T05:10:35;2.13;;;1.13;;
64188;SDS011;50493;50.970;10.082;2022-09-27T05:13:00;0.73;;;0.60;;
64188;SDS011;50493;50.970;10.082;2022-09-27T05:15:26;2.20;;;1.27;;
64188;SDS011;50493;50.970;10.082;2022-09-27T05:17:51;2.17;;;0.90;;
64188;SDS011;50493;50.970;10.082;2022-09-27T05:20:18;2.80;;;1.30;;
64188;SDS011;50493;50.970;10.082;2022-09-27T05:22:44;2.15;;;1.20;;
64188;SDS011;50493;50.970;10.082;2022-09-27T05:25:10;0.85;;;0.77;;
64188;SDS011;50493;50.970;10.082;2022-09-27T05:27:36;3.60;;;1.60;;
64188;SDS011;50493;50.970;10.082;2022-09-27T05:30:01;3.15;;;1.38;;
64188;SDS011;50493;50.970;10.082;2022-09-27T05:32:26;2.00;;;1.00;;
64188;SDS011;50493;50.970;10.082;2022-09-27T05:34:52;1.30;;;1.00;;
64188;SDS011;50493;50.970;10.082;2022-09-27T05:37:19;1.88;;;1.20;;
64188;SDS011;50493;50.970;10.082;2022-09-27T05:39:45;2.30;;;0.95;;
64188;SDS011;50493;50.970;10.082;2022-09-27T05:42:10;1.17;;;0.88;;
64188;SDS011;50493;50.970;10.082;2022-09-27T05:44:36;1.35;;;0.98;;
64188;SDS011;50493;50.970;10.082;2022-09-27T05:47:02;1.42;;;1.00;;
64188;SDS011;50493;50.970;10.082;2022-09-27T05:49:28;1.33;;;0.90;;
64188;SDS011;50493;50.970;10.082;2022-09-27T05:51:54;1.67;;;0.90;;
64188;SDS011;50493;50.970;10.082;2022-09-27T05:54:20;2.00;;;1.10;;
64188;SDS011;50493;50.970;10.082;2022-09-27T05:56:46;2.10;;;1.10;;
64188;SDS011;50493;50.970;10.082;2022-09-27T05:59:11;2.55;;;0.93;;
64188;SDS011;50493;50.970;10.082;2022-09-27T06:01:36;2.10;;;1.00;;
64188;SDS011;50493;50.970;10.082;2022-09-27T06:04:02;2.08;;;1.20;;
64188;SDS011;50493;50.970;10.082;2022-09-27T06:06:27;1.73;;;0.90;;
64188;SDS011;50493;50.970;10.082;2022-09-27T06:08:52;2.60;;;1.10;;
64188;SDS011;50493;50.970;10.082;2022-09-27T06:11:19;1.63;;;1.00;;
64188;SDS011;50493;50.970;10.082;2022-09-27T06:13:45;1.15;;;0.88;;
64188;SDS011;50493;50.970;10.082;2022-09-27T06:16:10;1.52;;;0.90;;
64188;SDS011;50493;50.970;10.082;2022-09-27T06:18:35;2.60;;;0.95;;
64188;SDS011;50493;50.970;10.082;2022-09-27T06:21:02;2.65;;;0.98;;
64188;SDS011;50493;50.970;10.082;2022-09-27T06:23:29;1.83;;;0.85;;
64188;SDS011;50493;50.970;10.082;2022-09-27T06:25:59;0.90;;;0.80;;
64188;SDS011;50493;50.970;10.082;2022-09-27T06:28:27;1.38;;;1.00;;
64188;SDS011;50493;50.970;10.082;2022-09-27T06:30:53;1.73;;;0.90;;
64188;SDS011;50493;50.970;10.082;2022-09-27T06:33:19;1.17;;;0.70;;
64188;SDS011;50493;50.970;10.082;2022-09-27T06:35:44;1.40;;;1.00;;
64188;SDS011;50493;50.970;10.082;2022-09-27T06:38:11;1.20;;;0.93;;
64188;SDS011;50493;50.970;10.082;2022-09-27T06:40:38;6.78;;;1.20;;
64188;SDS011;50493;50.970;10.082;2022-09-27T06:43:04;2.25;;;1.08;;
64188;SDS011;50493;50.970;10.082;2022-09-27T06:45:33;1.77;;;0.80;;
64188;SDS011;50493;50.970;10.082;2022-09-27T06:47:59;1.77;;;1.20;;
64188;SDS011;50493;50.970;10.082;2022-09-27T06:50:26;2.03;;;1.05;;
64188;SDS011;50493;50.970;10.082;2022-09-27T06:52:51;1.65;;;0.93;;
64188;SDS011;50493;50.970;10.082;2022-09-27T06:55:17;1.33;;;0.70;;
64188;SDS011;50493;50.970;10.082;2022-09-27T06:57:42;1.20;;;0.80;;
64188;SDS011;50493;50.970;10.082;2022-09-27T07:00:26;1.15;;;0.80;;
64188;SDS011;50493;50.970;10.082;2022-09-27T07:02:53;1.60;;;0.90;;
64188;SDS011;50493;50.970;10.082;2022-09-27T07:05:21;1.13;;;0.80;;
64188;SDS011;50493;50.970;10.082;2022-09-27T07:07:47;3.60;;;1.00;;
64188;SDS011;50493;50.970;10.082;2022-09-27T07:10:12;1.52;;;1.10;;
64188;SDS011;50493;50.970;10.082;2022-09-27T07:12:38;1.75;;;1.23;;
64188;SDS011;50493;50.970;10.082;2022-09-27T07:15:04;1.02;;;0.80;;
64188;SDS011;50493;50.970;10.082;2022-09-27T07:17:30;1.38;;;0.90;;
64188;SDS011;50493;50.970;10.082;2022-09-27T07:19:57;2.70;;;1.60;;
64188;SDS011;50493;50.970;10.082;2022-09-27T07:22:22;1.65;;;1.02;;
64188;SDS011;50493;50.970;10.082;2022-09-27T07:24:48;2.17;;;1.15;;
64188;SDS011;50493;50.970;10.082;2022-09-27T07:27:13;1.60;;;0.90;;
64188;SDS011;50493;50.970;10.082;2022-09-27T07:29:39;1.52;;;0.95;;
64188;SDS011;50493;50.970;10.082;2022-09-27T07:32:04;1.88;;;1.08;;
64188;SDS011;50493;50.970;10.082;2022-09-27T07:34:31;1.73;;;1.05;;
64188;SDS011;50493;50.970;10.082;2022-09-27T07:36:58;1.55;;;1.00;;
64188;SDS011;50493;50.970;10.082;2022-09-27T07:39:24;2.60;;;0.93;;
64188;SDS011;50493;50.970;10.082;2022-09-27T07:41:50;1.77;;;1.13;;
64188;SDS011;50493;50.970;10.082;2022-09-27T07:44:16;1.30;;;0.80;;
64188;SDS011;50493;50.970;10.082;2022-09-27T07:46:41;1.60;;;1.08;;
64188;SDS011;50493;50.970;10.082;2022-09-27T07:49:07;1.27;;;0.90;;
64188;SDS011;50493;50.970;10.082;2022-09-27T07:51:32;1.45;;;0.90;;
64188;SDS011;50493;50.970;10.082;2022-09-27T07:53:59;1.42;;;0.90;;
64188;SDS011;50493;50.970;10.082;2022-09-27T07:56:28;2.05;;;1.00;;
64188;SDS011;50493;50.970;10.082;2022-09-27T07:58:53;1.05;;;0.90;;
64188;SDS011;50493;50.970;10.082;2022-09-27T08:01:19;3.42;;;1.30;;
64188;SDS011;50493;50.970;10.082;2022-09-27T08:03:45;2.10;;;1.30;;
64188;SDS011;50493;50.970;10.082;2022-09-27T08:06:10;1.63;;;1.13;;
64188;SDS011;50493;50.970;10.082;2022-09-27T08:08:36;3.03;;;1.30;;
64188;SDS011;50493;50.970;10.082;2022-09-27T08:11:10;1.75;;;1.10;;
64188;SDS011;50493;50.970;10.082;2022-09-27T08:16:04;3.08;;;1.58;;
64188;SDS011;50493;50.970;10.082;2022-09-27T08:18:29;2.45;;;1.40;;
64188;SDS011;50493;50.970;10.082;2022-09-27T08:20:55;4.75;;;1.67;;
64188;SDS011;50493;50.970;10.082;2022-09-27T08:23:21;2.03;;;1.23;;
64188;SDS011;50493;50.970;10.082;2022-09-27T08:25:50;1.85;;;1.13;;
64188;SDS011;50493;50.970;10.082;2022-09-27T08:28:17;2.25;;;1.20;;
64188;SDS011;50493;50.970;10.082;2022-09-27T08:30:42;1.85;;;1.10;;
64188;SDS011;50493;50.970;10.082;2022-09-27T08:33:08;2.47;;;1.10;;
64188;SDS011;50493;50.970;10.082;2022-09-27T08:35:33;3.63;;;1.60;;
64188;SDS011;50493;50.970;10.082;2022-09-27T08:37:59;1.60;;;1.20;;
64188;SDS011;50493;50.970;10.082;2022-09-27T08:40:27;2.70;;;1.15;;
64188;SDS011;50493;50.970;10.082;2022-09-27T08:42:59;1.48;;;1.00;;
64188;SDS011;50493;50.970;10.082;2022-09-27T08:45:36;2.83;;;1.35;;
64188;SDS011;50493;50.970;10.082;2022-09-27T08:48:05;1.83;;;1.13;;
64188;SDS011;50493;50.970;10.082;2022-09-27T08:50:34;4.05;;;1.20;;
64188;SDS011;50493;50.970;10.082;2022-09-27T08:53:02;3.78;;;1.55;;
64188;SDS011;50493;50.970;10.082;2022-09-27T08:55:34;1.70;;;1.20;;
64188;SDS011;50493;50.970;10.082;2022-09-27T08:58:03;1.45;;;1.08;;
64188;SDS011;50493;50.970;10.082;2022-09-27T09:00:37;3.17;;;1.40;;
64188;SDS011;50493;50.970;10.082;2022-09-27T09:03:03;2.38;;;1.20;;
64188;SDS011;50493;50.970;10.082;2022-09-27T09:05:29;1.80;;;1.30;;
64188;SDS011;50493;50.970;10.082;2022-09-27T09:08:03;1.98;;;1.13;;
64188;SDS011;50493;50.970;10.082;2022-09-27T09:10:42;1.77;;;1.27;;
64188;SDS011;50493;50.970;10.082;2022-09-27T09:13:38;3.10;;;1.60;;
64188;SDS011;50493;50.970;10.082;2022-09-27T09:16:16;1.80;;;1.15;;
64188;SDS011;50493;50.970;10.082;2022-09-27T09:18:56;2.47;;;1.45;;
64188;SDS011;50493;50.970;10.082;2022-09-27T09:21:32;2.90;;;1.40;;
64188;SDS011;50493;50.970;10.082;2022-09-27T09:26:54;2.40;;;1.40;;
64188;SDS011;50493;50.970;10.082;2022-09-27T09:29:31;2.22;;;1.45;;
64188;SDS011;50493;50.970;10.082;2022-09-27T09:32:09;3.00;;;1.73;;
64188;SDS011;50493;50.970;10.082;2022-09-27T09:34:56;4.18;;;1.50;;
64188;SDS011;50493;50.970;10.082;2022-09-27T09:37:27;2.67;;;1.60;;
64188;SDS011;50493;50.970;10.082;2022-09-27T09:39:59;3.08;;;1.60;;
64188;SDS011;50493;50.970;10.082;2022-09-27T09:42:30;4.20;;;1.55;;
64188;SDS011;50493;50.970;10.082;2022-09-27T09:45:02;3.05;;;1.65;;
64188;SDS011;50493;50.970;10.082;2022-09-27T09:47:32;5.13;;;1.70;;
64188;SDS011;50493;50.970;10.082;2022-09-27T09:50:04;2.25;;;1.65;;
64188;SDS011;50493;50.970;10.082;2022-09-27T09:52:41;3.10;;;1.85;;
64188;SDS011;50493;50.970;10.082;2022-09-27T09:55:13;2.70;;;1.50;;
64188;SDS011;50493;50.970;10.082;2022-09-27T09:57:45;2.13;;;1.40;;
64188;SDS011;50493;50.970;10.082;2022-09-27T10:00:18;2.90;;;1.60;;
64188;SDS011;50493;50.970;10.082;2022-09-27T10:02:45;3.90;;;2.10;;
64188;SDS011;50493;50.970;10.082;2022-09-27T10:05:13;2.80;;;1.60;;
64188;SDS011;50493;50.970;10.082;2022-09-27T10:07:40;4.05;;;1.90;;
64188;SDS011;50493;50.970;10.082;2022-09-27T10:10:06;3.35;;;1.67;;
64188;SDS011;50493;50.970;10.082;2022-09-27T10:12:37;3.97;;;1.80;;
64188;SDS011;50493;50.970;10.082;2022-09-27T10:15:03;2.90;;;1.58;;
64188;SDS011;50493;50.970;10.082;2022-09-27T10:17:32;5.55;;;2.05;;
64188;SDS011;50493;50.970;10.082;2022-09-27T10:20:02;3.20;;;1.80;;
64188;SDS011;50493;50.970;10.082;2022-09-27T10:25:01;3.67;;;1.90;;
64188;SDS011;50493;50.970;10.082;2022-09-27T10:27:36;3.17;;;1.20;;
64188;SDS011;50493;50.970;10.082;2022-09-27T10:30:05;2.55;;;1.25;;
64188;SDS011;50493;50.970;10.082;2022-09-27T10:32:32;2.58;;;1.40;;
64188;SDS011;50493;50.970;10.082;2022-09-27T10:35:31;1.63;;;1.00;;
64188;SDS011;50493;50.970;10.082;2022-09-27T10:38:09;2.55;;;1.40;;
64188;SDS011;50493;50.970;10.082;2022-09-27T10:40:47;2.78;;;1.58;;
64188;SDS011;50493;50.970;10.082;2022-09-27T10:43:21;1.48;;;1.10;;
64188;SDS011;50493;50.970;10.082;2022-09-27T10:45:49;3.72;;;1.65;;
64188;SDS011;50493;50.970;10.082;2022-09-27T10:48:22;2.10;;;1.23;;
64188;SDS011;50493;50.970;10.082;2022-09-27T10:50:55;1.95;;;1.35;;
64188;SDS011;50493;50.970;10.082;2022-09-27T10:53:23;3.53;;;1.02;;
64188;SDS011;50493;50.970;10.082;2022-09-27T10:55:49;2.65;;;1.40;;
64188;SDS011;50493;50.970;10.082;2022-09-27T10:58:17;2.88;;;1.50;;
64188;SDS011;50493;50.970;10.082;2022-09-27T11:00:52;2.70;;;1.50;;
64188;SDS011;50493;50.970;10.082;2022-09-27T11:03:19;2.72;;;1.23;;
64188;SDS011;50493;50.970;10.082;2022-09-27T11:05:44;2.90;;;1.33;;
64188;SDS011;50493;50.970;10.082;2022-09-27T11:08:21;3.50;;;1.30;;
64188;SDS011;50493;50.970;10.082;2022-09-27T11:11:00;2.97;;;1.30;;
64188;SDS011;50493;50.970;10.082;2022-09-27T11:13:28;2.47;;;1.30;;
64188;SDS011;50493;50.970;10.082;2022-09-27T11:16:00;3.03;;;1.60;;
64188;SDS011;50493;50.970;10.082;2022-09-27T11:18:39;3.38;;;1.50;;
64188;SDS011;50493;50.970;10.082;2022-09-27T11:21:13;2.28;;;1.42;;
64188;SDS011;50493;50.970;10.082;2022-09-27T11:23:52;4.85;;;1.45;;
64188;SDS011;50493;50.970;10.082;2022-09-27T11:26:30;2.20;;;1.40;;
64188;SDS011;50493;50.970;10.082;2022-09-27T11:29:07;3.92;;;1.80;;
64188;SDS011;50493;50.970;10.082;2022-09-27T11:31:48;3.22;;;1.70;;
64188;SDS011;50493;50.970;10.082;2022-09-27T11:34:24;3.72;;;1.80;;
64188;SDS011;50493;50.970;10.082;2022-09-27T11:37:08;2.75;;;1.70;;
64188;SDS011;50493;50.970;10.082;2022-09-27T11:39:45;4.30;;;1.60;;
64188;SDS011;50493;50.970;10.082;2022-09-27T11:42:33;2.05;;;1.40;;
64188;SDS011;50493;50.970;10.082;2022-09-27T11:45:20;3.30;;;1.50;;
64188;SDS011;50493;50.970;10.082;2022-09-27T11:47:59;4.22;;;1.50;;
64188;SDS011;50493;50.970;10.082;2022-09-27T11:53:27;4.88;;;1.88;;
64188;SDS011;50493;50.970;10.082;2022-09-27T11:56:09;3.80;;;1.98;;
64188;SDS011;50493;50.970;10.082;2022-09-27T11:58:47;3.83;;;2.30;;
64188;SDS011;50493;50.970;10.082;2022-09-27T12:01:25;3.83;;;1.90;;
64188;SDS011;50493;50.970;10.082;2022-09-27T12:04:24;6.10;;;2.00;;
64188;SDS011;50493;50.970;10.082;2022-09-27T12:07:09;3.70;;;1.98;;
64188;SDS011;50493;50.970;10.082;2022-09-27T12:09:41;3.75;;;2.22;;
64188;SDS011;50493;50.970;10.082;2022-09-27T12:12:13;4.80;;;2.00;;
64188;SDS011;50493;50.970;10.082;2022-09-27T12:14:44;2.90;;;1.88;;
64188;SDS011;50493;50.970;10.082;2022-09-27T12:17:15;3.25;;;2.22;;
64188;SDS011;50493;50.970;10.082;2022-09-27T12:19:45;3.58;;;1.90;;
64188;SDS011;50493;50.970;10.082;2022-09-27T12:22:15;4.40;;;2.00;;
64188;SDS011;50493;50.970;10.082;2022-09-27T12:24:45;2.55;;;2.03;;
64188;SDS011;50493;50.970;10.082;2022-09-27T12:27:14;3.10;;;2.10;;
64188;SDS011;50493;50.970;10.082;2022-09-27T12:29:44;5.80;;;2.35;;
64188;SDS011;50493;50.970;10.082;2022-09-27T12:32:12;3.80;;;2.30;;
64188;SDS011;50493;50.970;10.082;2022-09-27T12:34:43;3.25;;;2.13;;
64188;SDS011;50493;50.970;10.082;2022-09-27T12:37:14;3.92;;;2.10;;
64188;SDS011;50493;50.970;10.082;2022-09-27T12:39:46;4.07;;;2.28;;
64188;SDS011;50493;50.970;10.082;2022-09-27T12:42:17;2.67;;;1.98;;
64188;SDS011;50493;50.970;10.082;2022-09-27T12:44:47;2.58;;;1.90;;
64188;SDS011;50493;50.970;10.082;2022-09-27T12:47:15;5.75;;;1.70;;
64188;SDS011;50493;50.970;10.082;2022-09-27T12:49:51;3.75;;;1.98;;
64188;SDS011;50493;50.970;10.082;2022-09-27T12:52:27;2.58;;;1.27;;
64188;SDS011;50493;50.970;10.082;2022-09-27T12:55:08;2.42;;;1.73;;
64188;SDS011;50493;50.970;10.082;2022-09-27T12:57:45;3.40;;;1.70;;
64188;SDS011;50493;50.970;10.082;2022-09-27T13:00:23;3.13;;;2.10;;
64188;SDS011;50493;50.970;10.082;2022-09-27T13:05:55;3.00;;;1.95;;
64188;SDS011;50493;50.970;10.082;2022-09-27T13:08:44;3.03;;;1.80;;
64188;SDS011;50493;50.970;10.082;2022-09-27T13:11:22;3.20;;;1.80;;
64188;SDS011;50493;50.970;10.082;2022-09-27T13:13:54;3.75;;;2.30;;
64188;SDS011;50493;50.970;10.082;2022-09-27T13:16:23;3.60;;;1.45;;
64188;SDS011;50493;50.970;10.082;2022-09-27T13:18:50;4.10;;;2.00;;
64188;SDS011;50493;50.970;10.082;2022-09-27T13:33:28;2.75;;;2.20;;
64188;SDS011;50493;50.970;10.082;2022-09-27T13:36:06;2.70;;;1.80;;
64188;SDS011;50493;50.970;10.082;2022-09-27T13:38:32;2.70;;;1.70;;
64188;SDS011;50493;50.970;10.082;2022-09-27T13:41:11;2.35;;;1.55;;
64188;SDS011;50493;50.970;10.082;2022-09-27T13:43:41;3.40;;;1.55;;
64188;SDS011;50493;50.970;10.082;2022-09-27T13:46:16;3.17;;;1.75;;
64188;SDS011;50493;50.970;10.082;2022-09-27T13:48:48;3.08;;;1.80;;
64188;SDS011;50493;50.970;10.082;2022-09-27T13:51:18;3.17;;;2.00;;
64188;SDS011;50493;50.970;10.082;2022-09-27T13:53:55;5.30;;;1.70;;
64188;SDS011;50493;50.970;10.082;2022-09-27T13:59:15;3.88;;;2.03;;
64188;SDS011;50493;50.970;10.082;2022-09-27T14:01:44;3.00;;;1.50;;
64188;SDS011;50493;50.970;10.082;2022-09-27T14:04:15;2.25;;;1.25;;
64188;SDS011;50493;50.970;10.082;2022-09-27T14:06:44;2.38;;;1.70;;
64188;SDS011;50493;50.970;10.082;2022-09-27T14:09:14;3.33;;;2.13;;
64188;SDS011;50493;50.970;10.082;2022-09-27T14:11:47;3.38;;;1.80;;
64188;SDS011;50493;50.970;10.082;2022-09-27T14:14:18;2.60;;;1.63;;
64188;SDS011;50493;50.970;10.082;2022-09-27T14:16:47;3.13;;;1.70;;
64188;SDS011;50493;50.970;10.082;2022-09-27T14:19:16;2.42;;;1.42;;
64188;SDS011;50493;50.970;10.082;2022-09-27T14:21:43;2.30;;;1.58;;
64188;SDS011;50493;50.970;10.082;2022-09-27T14:24:16;2.65;;;1.40;;
64188;SDS011;50493;50.970;10.082;2022-09-27T14:26:45;2.75;;;1.65;;
64188;SDS011;50493;50.970;10.082;2022-09-27T14:29:14;3.35;;;2.00;;
64188;SDS011;50493;50.970;10.082;2022-09-27T14:31:40;3.35;;;1.80;;
64188;SDS011;50493;50.970;10.082;2022-09-27T14:34:06;3.72;;;1.75;;
64188;SDS011;50493;50.970;10.082;2022-09-27T14:36:37;2.10;;;1.40;;
64188;SDS011;50493;50.970;10.082;2022-09-27T14:39:21;2.90;;;1.88;;
64188;SDS011;50493;50.970;10.082;2022-09-27T14:41:48;3.67;;;1.30;;
64188;SDS011;50493;50.970;10.082;2022-09-27T14:44:14;2.72;;;1.65;;
64188;SDS011;50493;50.970;10.082;2022-09-27T14:46:42;2.15;;;0.90;;
64188;SDS011;50493;50.970;10.082;2022-09-27T14:49:11;1.90;;;1.20;;
64188;SDS011;50493;50.970;10.082;2022-09-27T14:51:50;0.60;;;0.60;;
64188;SDS011;50493;50.970;10.082;2022-09-27T14:54:19;2.03;;;0.50;;
64188;SDS011;50493;50.970;10.082;2022-09-27T14:56:45;3.38;;;0.90;;
64188;SDS011;50493;50.970;10.082;2022-09-27T14:59:15;2.08;;;1.00;;
64188;SDS011;50493;50.970;10.082;2022-09-27T15:01:49;1.83;;;1.13;;
64188;SDS011;50493;50.970;10.082;2022-09-27T15:04:15;2.50;;;0.80;;
64188;SDS011;50493;50.970;10.082;2022-09-27T15:06:41;1.83;;;0.80;;
64188;SDS011;50493;50.970;10.082;2022-09-27T15:09:10;2.05;;;0.98;;
64188;SDS011;50493;50.970;10.082;2022-09-27T15:11:38;1.67;;;1.08;;
64188;SDS011;50493;50.970;10.082;2022-09-27T15:14:05;1.90;;;1.48;;
64188;SDS011;50493;50.970;10.082;2022-09-27T15:16:37;1.60;;;0.98;;
64188;SDS011;50493;50.970;10.082;2022-09-27T15:19:04;2.13;;;1.20;;
64188;SDS011;50493;50.970;10.082;2022-09-27T15:21:37;2.22;;;1.30;;
64188;SDS011;50493;50.970;10.082;2022-09-27T15:24:03;2.28;;;1.20;;